sensor_id;sensor_type;location;lat;lon;timestamp;temperature;humidity
20504;DHT22;10410;51.046;6.980;2022-07-21T00:06:12;19.50;99.90
20504;DHT22;10410;51.046;6.980;2022-07-21T00:13:13;19.50;99.90
20504;DHT22;10410;51.046;6.980;2022-07-21T00:20:16;19.40;99.90
20504;DHT22;10410;51.046;6.980;2022-07-21T00:27:17;19.30;99.90
20504;DHT22;10410;51.046;6.980;2022-07-21T00:34:17;19.30;99.90
20504;DHT22;10410;51.046;6.980;2022-07-21T00:41:18;19.40;99.90
20504;DHT22;10410;51.046;6.980;2022-07-21T00:48:19;19.40;99.90
20504;DHT22;10410;51.046;6.980;2022-07-21T00:55:21;19.40;99.90
20504;DHT22;10410;51.046;6.980;2022-07-21T01:02:22;19.40;99.90
20504;DHT22;10410;51.046;6.980;2022-07-21T01:09:23;19.40;99.90
20504;DHT22;10410;51.046;6.980;2022-07-21T01:16:24;19.40;99.90
20504;DHT22;10410;51.046;6.980;2022-07-21T01:23:24;19.30;99.90
20504;DHT22;10410;51.046;6.980;2022-07-21T01:30:25;19.30;99.90
20504;DHT22;10410;51.046;6.980;2022-07-21T01:37:28;19.20;99.90
20504;DHT22;10410;51.046;6.980;2022-07-21T01:44:29;19.20;99.90
20504;DHT22;10410;51.046;6.980;2022-07-21T01:51:30;19.20;99.90
20504;DHT22;10410;51.046;6.980;2022-07-21T01:58:31;19.20;99.90
20504;DHT22;10410;51.046;6.980;2022-07-21T02:05:31;19.10;99.90
20504;DHT22;10410;51.046;6.980;2022-07-21T02:12:32;19.10;99.90
20504;DHT22;10410;51.046;6.980;2022-07-21T02:19:32;19.00;99.90
20504;DHT22;10410;51.046;6.980;2022-07-21T02:26:33;19.00;99.90
20504;DHT22;10410;51.046;6.980;2022-07-21T02:33:33;19.00;99.90
20504;DHT22;10410;51.046;6.980;2022-07-21T02:40:34;18.90;99.90
20504;DHT22;10410;51.046;6.980;2022-07-21T02:48:08;18.90;99.90
20504;DHT22;10410;51.046;6.980;2022-07-21T02:55:09;18.90;99.90
20504;DHT22;10410;51.046;6.980;2022-07-21T03:02:10;18.90;99.90
20504;DHT22;10410;51.046;6.980;2022-07-21T03:09:10;18.80;99.90
20504;DHT22;10410;51.046;6.980;2022-07-21T03:16:11;18.80;99.90
20504;DHT22;10410;51.046;6.980;2022-07-21T03:23:11;18.90;99.90
20504;DHT22;10410;51.046;6.980;2022-07-21T03:30:13;18.80;99.90
20504;DHT22;10410;51.046;6.980;2022-07-21T03:37:14;18.80;99.90
20504;DHT22;10410;51.046;6.980;2022-07-21T03:44:14;18.80;99.90
20504;DHT22;10410;51.046;6.980;2022-07-21T03:51:14;18.80;99.90
20504;DHT22;10410;51.046;6.980;2022-07-21T03:58:15;18.80;99.90
20504;DHT22;10410;51.046;6.980;2022-07-21T04:05:17;18.80;99.90
20504;DHT22;10410;51.046;6.980;2022-07-21T04:12:18;18.70;99.90
20504;DHT22;10410;51.046;6.980;2022-07-21T04:19:18;18.80;99.90
20504;DHT22;10410;51.046;6.980;2022-07-21T04:26:19;18.90;99.90
20504;DHT22;10410;51.046;6.980;2022-07-21T04:33:19;18.90;99.90
20504;DHT22;10410;51.046;6.980;2022-07-21T04:40:20;18.90;99.90
20504;DHT22;10410;51.046;6.980;2022-07-21T04:47:20;18.90;99.90
20504;DHT22;10410;51.046;6.980;2022-07-21T04:54:21;19.00;99.90
20504;DHT22;10410;51.046;6.980;2022-07-21T05:01:21;19.00;99.90
20504;DHT22;10410;51.046;6.980;2022-07-21T05:08:22;19.00;99.90
20504;DHT22;10410;51.046;6.980;2022-07-21T05:15:22;19.00;99.90
20504;DHT22;10410;51.046;6.980;2022-07-21T05:22:23;19.00;99.90
20504;DHT22;10410;51.046;6.980;2022-07-21T05:29:23;19.10;99.90
20504;DHT22;10410;51.046;6.980;2022-07-21T05:36:24;19.20;99.90
20504;DHT22;10410;51.046;6.980;2022-07-21T05:43:25;19.40;99.90
20504;DHT22;10410;51.046;6.980;2022-07-21T05:50:26;19.40;99.90
20504;DHT22;10410;51.046;6.980;2022-07-21T05:57:26;19.40;99.90
20504;DHT22;10410;51.046;6.980;2022-07-21T06:04:27;19.40;99.90
20504;DHT22;10410;51.046;6.980;2022-07-21T06:11:29;19.40;99.90
20504;DHT22;10410;51.046;6.980;2022-07-21T06:18:36;19.40;99.90
20504;DHT22;10410;51.046;6.980;2022-07-21T06:25:36;19.40;99.90
20504;DHT22;10410;51.046;6.980;2022-07-21T06:32:37;19.40;99.90
20504;DHT22;10410;51.046;6.980;2022-07-21T06:39:37;19.30;99.90
20504;DHT22;10410;51.046;6.980;2022-07-21T06:46:41;19.30;99.90
20504;DHT22;10410;51.046;6.980;2022-07-21T06:53:42;19.30;99.90
20504;DHT22;10410;51.046;6.980;2022-07-21T07:00:47;19.50;99.90
20504;DHT22;10410;51.046;6.980;2022-07-21T07:07:48;19.80;99.90
20504;DHT22;10410;51.046;6.980;2022-07-21T07:14:49;20.00;99.90
20504;DHT22;10410;51.046;6.980;2022-07-21T07:21:49;20.30;99.90
20504;DHT22;10410;51.046;6.980;2022-07-21T07:28:50;20.50;99.90
20504;DHT22;10410;51.046;6.980;2022-07-21T07:35:51;20.50;99.90
20504;DHT22;10410;51.046;6.980;2022-07-21T07:42:52;20.80;99.90
20504;DHT22;10410;51.046;6.980;2022-07-21T07:49:53;21.00;99.90
20504;DHT22;10410;51.046;6.980;2022-07-21T07:56:54;21.20;99.90
20504;DHT22;10410;51.046;6.980;2022-07-21T08:03:54;21.60;99.90
20504;DHT22;10410;51.046;6.980;2022-07-21T08:10:57;22.10;99.90
20504;DHT22;10410;51.046;6.980;2022-07-21T08:17:57;22.10;99.90
20504;DHT22;10410;51.046;6.980;2022-07-21T08:24:58;21.90;99.90
20504;DHT22;10410;51.046;6.980;2022-07-21T08:31:58;21.80;99.90
20504;DHT22;10410;51.046;6.980;2022-07-21T08:38:59;22.10;99.90
20504;DHT22;10410;51.046;6.980;2022-07-21T08:45:59;22.30;99.90
20504;DHT22;10410;51.046;6.980;2022-07-21T08:53:00;22.30;99.90
20504;DHT22;10410;51.046;6.980;2022-07-21T09:00:01;22.40;99.90
20504;DHT22;10410;51.046;6.980;2022-07-21T09:07:07;22.60;99.90
20504;DHT22;10410;51.046;6.980;2022-07-21T09:14:11;22.40;99.90
20504;DHT22;10410;51.046;6.980;2022-07-21T09:21:12;22.70;99.90
20504;DHT22;10410;51.046;6.980;2022-07-21T09:35:23;23.10;99.90
20504;DHT22;10410;51.046;6.980;2022-07-21T09:42:29;23.20;99.90
20504;DHT22;10410;51.046;6.980;2022-07-21T09:49:32;23.10;99.90
20504;DHT22;10410;51.046;6.980;2022-07-21T09:56:53;23.00;99.90
20504;DHT22;10410;51.046;6.980;2022-07-21T10:03:56;23.00;99.90
20504;DHT22;10410;51.046;6.980;2022-07-21T10:10:57;23.10;99.90
20504;DHT22;10410;51.046;6.980;2022-07-21T10:18:19;23.10;99.90
20504;DHT22;10410;51.046;6.980;2022-07-21T10:25:22;23.40;99.90
20504;DHT22;10410;51.046;6.980;2022-07-21T10:32:26;23.40;99.90
20504;DHT22;10410;51.046;6.980;2022-07-21T10:39:27;23.60;99.90
20504;DHT22;10410;51.046;6.980;2022-07-21T10:46:33;23.30;99.90
20504;DHT22;10410;51.046;6.980;2022-07-21T10:53:35;23.00;99.90
20504;DHT22;10410;51.046;6.980;2022-07-21T11:00:36;22.90;99.90
20504;DHT22;10410;51.046;6.980;2022-07-21T11:08:12;22.60;99.90
20504;DHT22;10410;51.046;6.980;2022-07-21T11:15:55;22.10;99.90
20504;DHT22;10410;51.046;6.980;2022-07-21T11:22:56;21.70;99.90
20504;DHT22;10410;51.046;6.980;2022-07-21T11:30:06;21.20;99.90
20504;DHT22;10410;51.046;6.980;2022-07-21T11:37:08;20.90;99.90
20504;DHT22;10410;51.046;6.980;2022-07-21T11:44:29;20.60;99.90
20504;DHT22;10410;51.046;6.980;2022-07-21T11:51:30;20.20;99.90
20504;DHT22;10410;51.046;6.980;2022-07-21T11:58:30;19.80;99.90
20504;DHT22;10410;51.046;6.980;2022-07-21T12:05:31;19.60;99.90
20504;DHT22;10410;51.046;6.980;2022-07-21T12:12:40;19.50;99.90
20504;DHT22;10410;51.046;6.980;2022-07-21T12:19:42;19.50;99.90
20504;DHT22;10410;51.046;6.980;2022-07-21T12:26:43;19.40;99.90
20504;DHT22;10410;51.046;6.980;2022-07-21T12:33:44;19.10;99.90
20504;DHT22;10410;51.046;6.980;2022-07-21T12:41:05;19.00;99.90
20504;DHT22;10410;51.046;6.980;2022-07-21T12:48:31;19.00;99.90
20504;DHT22;10410;51.046;6.980;2022-07-21T12:55:32;19.10;99.90
20504;DHT22;10410;51.046;6.980;2022-07-21T13:02:48;19.10;99.90
20504;DHT22;10410;51.046;6.980;2022-07-21T13:09:50;19.10;99.90
20504;DHT22;10410;51.046;6.980;2022-07-21T13:16:51;19.10;99.90
20504;DHT22;10410;51.046;6.980;2022-07-21T13:23:53;19.10;99.90
20504;DHT22;10410;51.046;6.980;2022-07-21T13:30:53;19.10;99.90
20504;DHT22;10410;51.046;6.980;2022-07-21T13:37:55;19.10;99.90
20504;DHT22;10410;51.046;6.980;2022-07-21T13:44:56;19.10;99.90
20504;DHT22;10410;51.046;6.980;2022-07-21T13:51:57;19.00;99.90
20504;DHT22;10410;51.046;6.980;2022-07-21T13:58:58;18.80;99.90
20504;DHT22;10410;51.046;6.980;2022-07-21T14:05:59;18.70;99.90
20504;DHT22;10410;51.046;6.980;2022-07-21T14:13:00;18.70;99.90
20504;DHT22;10410;51.046;6.980;2022-07-21T14:20:01;18.80;99.90
20504;DHT22;10410;51.046;6.980;2022-07-21T14:27:01;18.80;99.90
20504;DHT22;10410;51.046;6.980;2022-07-21T14:34:02;18.80;99.90
20504;DHT22;10410;51.046;6.980;2022-07-21T14:41:02;18.80;99.90
20504;DHT22;10410;51.046;6.980;2022-07-21T14:48:03;18.70;99.90
20504;DHT22;10410;51.046;6.980;2022-07-21T14:55:05;18.60;99.90
20504;DHT22;10410;51.046;6.980;2022-07-21T15:02:07;18.60;99.90
20504;DHT22;10410;51.046;6.980;2022-07-21T15:09:16;18.60;99.90
20504;DHT22;10410;51.046;6.980;2022-07-21T15:16:17;18.60;99.90
20504;DHT22;10410;51.046;6.980;2022-07-21T15:23:18;18.70;99.90
20504;DHT22;10410;51.046;6.980;2022-07-21T15:30:18;18.70;99.90
20504;DHT22;10410;51.046;6.980;2022-07-21T15:37:19;18.70;99.90
20504;DHT22;10410;51.046;6.980;2022-07-21T15:44:20;18.80;99.90
20504;DHT22;10410;51.046;6.980;2022-07-21T15:51:21;18.90;99.90
20504;DHT22;10410;51.046;6.980;2022-07-21T15:58:22;19.00;99.90
20504;DHT22;10410;51.046;6.980;2022-07-21T16:05:25;19.00;99.90
20504;DHT22;10410;51.046;6.980;2022-07-21T16:12:25;19.10;99.90
20504;DHT22;10410;51.046;6.980;2022-07-21T16:19:27;19.20;99.90
20504;DHT22;10410;51.046;6.980;2022-07-21T16:26:28;19.20;99.90
20504;DHT22;10410;51.046;6.980;2022-07-21T16:33:28;19.00;99.90
20504;DHT22;10410;51.046;6.980;2022-07-21T16:40:29;18.70;99.90
20504;DHT22;10410;51.046;6.980;2022-07-21T16:47:30;18.40;99.90
20504;DHT22;10410;51.046;6.980;2022-07-21T16:54:30;18.20;99.90
20504;DHT22;10410;51.046;6.980;2022-07-21T17:01:30;18.10;99.90
20504;DHT22;10410;51.046;6.980;2022-07-21T17:08:31;18.10;99.90
20504;DHT22;10410;51.046;6.980;2022-07-21T17:15:32;18.20;99.90
20504;DHT22;10410;51.046;6.980;2022-07-21T17:22:32;18.30;99.90
20504;DHT22;10410;51.046;6.980;2022-07-21T17:29:33;18.40;99.90
20504;DHT22;10410;51.046;6.980;2022-07-21T17:36:34;18.40;99.90
20504;DHT22;10410;51.046;6.980;2022-07-21T17:43:35;18.40;99.90
20504;DHT22;10410;51.046;6.980;2022-07-21T17:50:37;18.30;99.90
20504;DHT22;10410;51.046;6.980;2022-07-21T17:57:38;18.30;99.90
20504;DHT22;10410;51.046;6.980;2022-07-21T18:04:57;18.30;99.90
20504;DHT22;10410;51.046;6.980;2022-07-21T18:11:59;18.30;99.90
20504;DHT22;10410;51.046;6.980;2022-07-21T18:18:59;18.30;99.90
20504;DHT22;10410;51.046;6.980;2022-07-21T18:25:59;18.30;99.90
20504;DHT22;10410;51.046;6.980;2022-07-21T18:33:00;18.30;99.90
20504;DHT22;10410;51.046;6.980;2022-07-21T18:40:01;18.20;99.90
20504;DHT22;10410;51.046;6.980;2022-07-21T18:47:02;18.10;99.90
20504;DHT22;10410;51.046;6.980;2022-07-21T18:54:02;18.00;99.90
20504;DHT22;10410;51.046;6.980;2022-07-21T19:01:10;18.00;99.90
20504;DHT22;10410;51.046;6.980;2022-07-21T19:08:13;17.90;99.90
20504;DHT22;10410;51.046;6.980;2022-07-21T19:15:14;17.90;99.90
20504;DHT22;10410;51.046;6.980;2022-07-21T19:22:15;17.80;99.90
20504;DHT22;10410;51.046;6.980;2022-07-21T19:29:16;17.80;99.90
20504;DHT22;10410;51.046;6.980;2022-07-21T19:36:16;17.80;99.90
20504;DHT22;10410;51.046;6.980;2022-07-21T19:43:17;17.80;99.90
20504;DHT22;10410;51.046;6.980;2022-07-21T19:50:17;17.80;99.90
20504;DHT22;10410;51.046;6.980;2022-07-21T19:57:18;17.70;99.90
20504;DHT22;10410;51.046;6.980;2022-07-21T20:04:20;17.60;99.90
20504;DHT22;10410;51.046;6.980;2022-07-21T20:11:20;17.60;99.90
20504;DHT22;10410;51.046;6.980;2022-07-21T20:18:21;17.60;99.90
20504;DHT22;10410;51.046;6.980;2022-07-21T20:25:21;17.60;99.90
20504;DHT22;10410;51.046;6.980;2022-07-21T20:32:22;17.50;99.90
20504;DHT22;10410;51.046;6.980;2022-07-21T20:39:23;17.50;99.90
20504;DHT22;10410;51.046;6.980;2022-07-21T20:46:23;17.50;99.90
20504;DHT22;10410;51.046;6.980;2022-07-21T20:53:24;17.50;99.90
20504;DHT22;10410;51.046;6.980;2022-07-21T21:00:29;17.50;99.90
20504;DHT22;10410;51.046;6.980;2022-07-21T21:07:29;17.40;99.90
20504;DHT22;10410;51.046;6.980;2022-07-21T21:14:30;17.40;99.90
20504;DHT22;10410;51.046;6.980;2022-07-21T21:21:30;17.40;99.90
20504;DHT22;10410;51.046;6.980;2022-07-21T21:28:31;17.30;99.90
20504;DHT22;10410;51.046;6.980;2022-07-21T21:35:31;17.30;99.90
20504;DHT22;10410;51.046;6.980;2022-07-21T21:42:32;17.30;99.90
20504;DHT22;10410;51.046;6.980;2022-07-21T21:49:33;17.20;99.90
20504;DHT22;10410;51.046;6.980;2022-07-21T21:56:33;17.20;99.90
20504;DHT22;10410;51.046;6.980;2022-07-21T22:03:34;17.10;99.90
20504;DHT22;10410;51.046;6.980;2022-07-21T22:10:35;17.10;99.90
20504;DHT22;10410;51.046;6.980;2022-07-21T22:17:35;17.10;99.90
20504;DHT22;10410;51.046;6.980;2022-07-21T22:24:36;17.00;99.90
20504;DHT22;10410;51.046;6.980;2022-07-21T22:31:37;17.10;99.90
20504;DHT22;10410;51.046;6.980;2022-07-21T22:38:38;17.10;99.90
20504;DHT22;10410;51.046;6.980;2022-07-21T22:45:38;17.10;99.90
20504;DHT22;10410;51.046;6.980;2022-07-21T22:52:39;17.10;99.90
20504;DHT22;10410;51.046;6.980;2022-07-21T22:59:39;17.10;99.90
20504;DHT22;10410;51.046;6.980;2022-07-21T23:06:40;17.00;99.90
20504;DHT22;10410;51.046;6.980;2022-07-21T23:13:41;17.10;99.90
20504;DHT22;10410;51.046;6.980;2022-07-21T23:20:41;17.10;99.90
20504;DHT22;10410;51.046;6.980;2022-07-21T23:27:42;17.00;99.90
20504;DHT22;10410;51.046;6.980;2022-07-21T23:34:44;16.90;99.90
20504;DHT22;10410;51.046;6.980;2022-07-21T23:41:45;16.80;99.90
20504;DHT22;10410;51.046;6.980;2022-07-21T23:48:46;16.80;99.90
20504;DHT22;10410;51.046;6.980;2022-07-21T23:55:46;16.80;99.90
